Time;durP1;ratioP1;P1;durP2;ratioP2;P2;SDS_P1;SDS_P2;PMS_P1;PMS_P2;Temp;Humidity;BMP_temperature;BMP_pressure;BME280_temperature;BME280_humidity;BME280_pressure;Samples;Min_cycle;Max_cycle;Signal;HPM_P1;HPM_P2
2022/08/07 00:01:53;;;;;;;;;3.67;3.67;;;;;;;;5072187;28;51380;-62
2022/08/07 00:04:18;;;;;;;;;4.00;3.00;;;;;;;;5071595;28;51180;-61
2022/08/07 00:06:44;;;;;;;;;4.67;4.67;;;;;;;;5071340;28;52046;-61
2022/08/07 00:09:09;;;;;;;;;6.00;6.00;;;;;;;;5071709;27;51027;-63
2022/08/07 00:11:34;;;;;;;;;7.00;5.33;;;;;;;;5072021;27;50826;-62
2022/08/07 00:14:00;;;;;;;;;7.00;7.00;;;;;;;;5072320;28;51008;-62
2022/08/07 00:16:25;;;;;;;;;5.33;5.00;;;;;;;;5071631;27;51894;-61
2022/08/07 00:18:50;;;;;;;;;4.67;4.67;;;;;;;;5071537;28;50909;-61
2022/08/07 00:21:15;;;;;;;;;4.67;4.67;;;;;;;;5071701;27;51055;-61
2022/08/07 00:23:41;;;;;;;;;7.00;5.67;;;;;;;;5071593;28;51242;-61
2022/08/07 00:26:08;;;;;;;;;5.67;4.67;;;;;;;;5071566;28;52060;-62
2022/08/07 00:28:33;;;;;;;;;6.00;6.00;;;;;;;;5071606;27;50973;-61
2022/08/07 00:30:58;;;;;;;;;7.33;7.00;;;;;;;;5071712;27;51378;-62
2022/08/07 00:33:27;;;;;;;;;6.50;6.50;;;;;;;;5071856;27;51096;-61
2022/08/07 00:35:55;;;;;;;;;7.33;5.67;;;;;;;;5071786;27;52788;-62
2022/08/07 00:38:20;;;;;;;;;4.75;4.75;;;;;;;;5071209;28;51157;-62
2022/08/07 00:40:46;;;;;;;;;4.67;4.67;;;;;;;;5071823;27;51461;-62
2022/08/07 00:43:12;;;;;;;;;5.67;5.67;;;;;;;;5074432;27;51205;-61
2022/08/07 00:45:38;;;;;;;;;5.00;5.00;;;;;;;;5076630;27;51909;-61
2022/08/07 00:48:03;;;;;;;;;4.67;4.67;;;;;;;;5077685;28;51138;-63
2022/08/07 00:50:28;;;;;;;;;5.33;5.33;;;;;;;;5077134;28;51185;-60
2022/08/07 00:52:53;;;;;;;;;4.33;4.33;;;;;;;;5076788;28;51059;-62
2022/08/07 00:55:19;;;;;;;;;3.00;3.00;;;;;;;;5076112;28;51808;-62
2022/08/07 00:57:44;;;;;;;;;4.67;4.67;;;;;;;;5076386;28;50967;-62
2022/08/07 01:00:09;;;;;;;;;5.33;5.00;;;;;;;;5075595;27;51119;-62
2022/08/07 01:02:35;;;;;;;;;5.00;5.00;;;;;;;;5074829;27;51421;-61
2022/08/07 01:05:04;;;;;;;;;4.67;4.00;;;;;;;;5074437;28;52240;-62
2022/08/07 01:07:30;;;;;;;;;5.00;5.00;;;;;;;;5074591;27;51075;-60
2022/08/07 01:09:55;;;;;;;;;6.00;6.00;;;;;;;;5074740;28;51058;-62
2022/08/07 01:12:20;;;;;;;;;5.75;5.25;;;;;;;;5074653;28;50884;-62
2022/08/07 01:14:46;;;;;;;;;6.00;6.00;;;;;;;;5074733;27;51126;-61
2022/08/07 01:17:11;;;;;;;;;4.33;4.33;;;;;;;;5074183;28;51009;-61
2022/08/07 01:19:37;;;;;;;;;5.00;4.00;;;;;;;;5074468;28;50973;-62
2022/08/07 01:22:02;;;;;;;;;5.00;5.00;;;;;;;;5074348;28;51306;-62
2022/08/07 01:24:28;;;;;;;;;4.00;4.00;;;;;;;;5074295;28;51249;-61
2022/08/07 01:26:54;;;;;;;;;5.00;5.00;;;;;;;;5074334;28;51056;-62
2022/08/07 01:29:23;;;;;;;;;6.00;5.00;;;;;;;;5074511;28;51523;-61
2022/08/07 01:31:48;;;;;;;;;3.33;3.33;;;;;;;;5074822;28;51405;-62
2022/08/07 01:34:14;;;;;;;;;5.00;5.00;;;;;;;;5074705;28;51085;-62
2022/08/07 01:36:39;;;;;;;;;5.00;5.00;;;;;;;;5074596;27;50972;-63
2022/08/07 01:39:05;;;;;;;;;4.00;3.33;;;;;;;;5074185;27;50995;-62
2022/08/07 01:41:30;;;;;;;;;4.00;4.00;;;;;;;;5072578;28;50977;-61
2022/08/07 01:43:55;;;;;;;;;4.67;4.67;;;;;;;;5074311;27;51310;-62
2022/08/07 01:46:20;;;;;;;;;5.00;5.00;;;;;;;;5074025;27;51020;-63
2022/08/07 01:48:46;;;;;;;;;4.33;4.33;;;;;;;;5074141;27;50959;-62
2022/08/07 01:51:16;;;;;;;;;4.75;4.75;;;;;;;;5073561;28;50969;-60
2022/08/07 01:53:43;;;;;;;;;5.00;5.00;;;;;;;;5072237;28;51757;-62
2022/08/07 01:56:10;;;;;;;;;7.75;6.25;;;;;;;;5073502;28;51289;-62
2022/08/07 01:58:38;;;;;;;;;6.00;6.00;;;;;;;;5073758;28;51044;-62
2022/08/07 02:01:12;;;;;;;;;4.00;4.00;;;;;;;;5073872;27;51367;-62
2022/08/07 02:03:41;;;;;;;;;5.00;5.00;;;;;;;;5073471;28;51436;-62
2022/08/07 02:06:10;;;;;;;;;6.00;5.00;;;;;;;;5073309;27;50992;-62
2022/08/07 02:08:39;;;;;;;;;4.67;4.00;;;;;;;;5071814;28;51068;-62
2022/08/07 02:11:05;;;;;;;;;5.00;5.00;;;;;;;;5072266;28;51181;-60
2022/08/07 02:13:32;;;;;;;;;5.00;5.00;;;;;;;;5072799;28;51965;-61
2022/08/07 02:16:00;;;;;;;;;5.00;4.00;;;;;;;;5073262;28;51156;-61
2022/08/07 02:18:27;;;;;;;;;5.00;5.00;;;;;;;;5073644;28;51127;-61
2022/08/07 02:20:53;;;;;;;;;5.00;5.00;;;;;;;;5073996;28;51286;-61
2022/08/07 02:23:19;;;;;;;;;4.00;4.00;;;;;;;;5073362;28;51809;-60
2022/08/07 02:25:45;;;;;;;;;4.75;4.75;;;;;;;;5074230;28;51026;-62
2022/08/07 02:28:11;;;;;;;;;5.00;4.00;;;;;;;;5074467;28;51032;-61
2022/08/07 02:30:37;;;;;;;;;3.75;3.75;;;;;;;;5073471;28;51047;-61
2022/08/07 02:33:03;;;;;;;;;3.50;3.50;;;;;;;;5073112;27;51199;-62
2022/08/07 02:35:29;;;;;;;;;4.67;4.67;;;;;;;;5073136;28;51127;-62
2022/08/07 02:37:56;;;;;;;;;5.33;5.00;;;;;;;;5072960;28;50833;-62
2022/08/07 02:40:22;;;;;;;;;5.00;5.00;;;;;;;;5073206;28;51029;-62
2022/08/07 02:42:48;;;;;;;;;3.33;3.00;;;;;;;;5072650;28;52062;-62
2022/08/07 02:45:15;;;;;;;;;4.33;4.33;;;;;;;;5072987;28;50941;-62
2022/08/07 02:47:40;;;;;;;;;5.00;4.50;;;;;;;;5073223;28;50925;-61
2022/08/07 02:50:06;;;;;;;;;6.00;5.00;;;;;;;;5073251;28;50998;-61
2022/08/07 02:52:36;;;;;;;;;5.00;4.00;;;;;;;;5070978;28;52596;-61
2022/08/07 02:55:03;;;;;;;;;5.75;5.00;;;;;;;;5072675;27;51052;-60
2022/08/07 02:57:29;;;;;;;;;8.00;8.00;;;;;;;;5073027;28;51086;-62
2022/08/07 02:59:56;;;;;;;;;5.00;4.00;;;;;;;;5072766;28;51104;-61
2022/08/07 03:02:22;;;;;;;;;5.00;5.00;;;;;;;;5072667;27;51925;-60
2022/08/07 03:04:47;;;;;;;;;3.00;3.00;;;;;;;;5071347;28;51042;-61
2022/08/07 03:07:13;;;;;;;;;5.25;5.00;;;;;;;;5072513;27;51065;-60
2022/08/07 03:09:39;;;;;;;;;4.75;4.75;;;;;;;;5072933;27;51220;-61
2022/08/07 03:12:05;;;;;;;;;6.00;5.50;;;;;;;;5072615;28;52200;-61
2022/08/07 03:14:31;;;;;;;;;4.67;4.67;;;;;;;;5073647;28;50874;-62
2022/08/07 03:16:57;;;;;;;;;4.00;3.00;;;;;;;;5073195;28;50932;-61
2022/08/07 03:19:23;;;;;;;;;3.00;3.00;;;;;;;;5072936;28;50850;-61
2022/08/07 03:21:49;;;;;;;;;5.50;4.75;;;;;;;;5072328;28;51965;-62
2022/08/07 03:24:14;;;;;;;;;5.00;5.00;;;;;;;;5072804;28;51027;-61
2022/08/07 03:26:40;;;;;;;;;5.75;4.50;;;;;;;;5074512;28;52262;-62
2022/08/07 03:29:07;;;;;;;;;5.25;5.00;;;;;;;;5071733;28;51053;-61
2022/08/07 03:31:34;;;;;;;;;4.00;4.00;;;;;;;;5072017;27;51848;-61
2022/08/07 03:34:00;;;;;;;;;3.25;3.00;;;;;;;;5074136;28;50981;-60
2022/08/07 03:36:26;;;;;;;;;5.00;5.00;;;;;;;;5074418;27;51010;-61
2022/08/07 03:38:54;;;;;;;;;4.75;3.50;;;;;;;;5071859;28;51168;-62
2022/08/07 03:41:20;;;;;;;;;5.50;4.75;;;;;;;;5074549;28;51126;-62
2022/08/07 03:43:45;;;;;;;;;3.00;3.00;;;;;;;;5074408;27;51023;-62
2022/08/07 03:46:11;;;;;;;;;4.00;4.00;;;;;;;;5073762;28;51104;-61
2022/08/07 03:48:37;;;;;;;;;5.25;5.25;;;;;;;;5072708;27;51270;-60
2022/08/07 03:51:03;;;;;;;;;7.50;7.00;;;;;;;;5071966;28;51630;-62
2022/08/07 03:53:28;;;;;;;;;5.75;5.75;;;;;;;;5073212;28;51152;-61
2022/08/07 03:55:54;;;;;;;;;7.00;6.00;;;;;;;;5072807;28;51219;-61
2022/08/07 03:58:20;;;;;;;;;6.50;6.00;;;;;;;;5073083;28;51051;-61
2022/08/07 04:00:47;;;;;;;;;5.75;5.75;;;;;;;;5071598;28;54421;-62
2022/08/07 04:03:12;;;;;;;;;5.25;5.25;;;;;;;;5073517;28;51045;-62
2022/08/07 04:05:37;;;;;;;;;7.00;7.00;;;;;;;;5072201;28;50895;-61
2022/08/07 04:08:03;;;;;;;;;5.00;5.00;;;;;;;;5070619;28;51361;-61
2022/08/07 04:10:29;;;;;;;;;5.25;4.25;;;;;;;;5072434;28;51897;-62
2022/08/07 04:12:55;;;;;;;;;5.00;5.00;;;;;;;;5072980;28;50999;-61
2022/08/07 04:15:20;;;;;;;;;5.75;5.75;;;;;;;;5073376;28;51089;-62
2022/08/07 04:17:45;;;;;;;;;3.75;3.25;;;;;;;;5077189;27;51405;-61
2022/08/07 04:20:11;;;;;;;;;6.00;6.00;;;;;;;;5076003;28;51073;-62
2022/08/07 04:22:37;;;;;;;;;6.00;6.00;;;;;;;;5075026;27;50970;-62
2022/08/07 04:25:03;;;;;;;;;5.00;4.00;;;;;;;;5075668;28;51029;-61
2022/08/07 04:27:29;;;;;;;;;7.00;7.00;;;;;;;;5075289;28;51321;-61
2022/08/07 04:29:54;;;;;;;;;4.50;4.00;;;;;;;;5073904;28;51644;-62
2022/08/07 04:32:19;;;;;;;;;5.00;5.00;;;;;;;;5075072;28;50965;-62
2022/08/07 04:34:45;;;;;;;;;5.00;5.00;;;;;;;;5075044;28;51060;-62
2022/08/07 04:37:10;;;;;;;;;3.75;3.00;;;;;;;;5074796;28;51242;-62
2022/08/07 04:39:35;;;;;;;;;4.50;4.00;;;;;;;;5074788;28;51858;-61
2022/08/07 04:42:01;;;;;;;;;5.00;4.50;;;;;;;;5074830;28;50838;-62
2022/08/07 04:44:27;;;;;;;;;4.00;4.00;;;;;;;;5074861;27;51151;-62
2022/08/07 04:46:52;;;;;;;;;6.67;6.00;;;;;;;;5075023;28;51432;-61
2022/08/07 04:49:23;;;;;;;;;4.33;4.00;;;;;;;;5074761;28;51003;-62
2022/08/07 04:52:06;;;;;;;;;5.00;5.00;;;;;;;;5074490;27;50931;-62
2022/08/07 04:54:41;;;;;;;;;4.00;4.00;;;;;;;;5088544;27;51107;-62
2022/08/07 04:57:06;;;;;;;;;7.25;7.00;;;;;;;;5075061;27;51135;-62
2022/08/07 04:59:52;;;;;;;;;5.50;5.00;;;;;;;;5074571;28;51046;-62
2022/08/07 05:02:26;;;;;;;;;4.25;4.25;;;;;;;;5033094;28;50977;-61
2022/08/07 05:04:52;;;;;;;;;5.00;5.00;;;;;;;;5073817;27;51076;-61
2022/08/07 05:07:18;;;;;;;;;4.50;4.50;;;;;;;;5075162;28;51333;-61
2022/08/07 05:10:02;;;;;;;;;4.33;4.33;;;;;;;;5061637;28;52100;-61
2022/08/07 05:12:33;;;;;;;;;5.00;4.75;;;;;;;;5074690;28;51125;-61
2022/08/07 05:15:17;;;;;;;;;3.75;3.75;;;;;;;;5074736;28;50993;-61
2022/08/07 05:17:47;;;;;;;;;4.00;4.00;;;;;;;;5074399;27;51136;-62
2022/08/07 05:20:15;;;;;;;;;5.50;5.50;;;;;;;;5074303;27;51053;-61
2022/08/07 05:22:42;;;;;;;;;4.75;4.75;;;;;;;;5072723;28;50859;-61
2022/08/07 05:25:08;;;;;;;;;7.00;6.00;;;;;;;;5074295;28;51191;-61
2022/08/07 05:27:34;;;;;;;;;4.00;3.33;;;;;;;;5073682;28;51258;-61
2022/08/07 05:30:00;;;;;;;;;5.00;5.00;;;;;;;;5072726;28;52844;-62
2022/08/07 05:32:26;;;;;;;;;5.67;5.33;;;;;;;;5074248;28;50977;-62
2022/08/07 05:34:52;;;;;;;;;5.50;5.00;;;;;;;;5074168;28;51133;-63
2022/08/07 05:37:18;;;;;;;;;6.67;5.00;;;;;;;;5074281;27;51036;-62
2022/08/07 05:39:43;;;;;;;;;4.67;4.67;;;;;;;;5073821;28;51850;-61
2022/08/07 05:42:09;;;;;;;;;5.33;5.00;;;;;;;;5074063;27;51065;-61
2022/08/07 05:44:35;;;;;;;;;5.00;5.00;;;;;;;;5074260;28;51024;-62
2022/08/07 05:47:01;;;;;;;;;4.00;4.00;;;;;;;;5072893;28;51486;-61
2022/08/07 05:49:26;;;;;;;;;3.67;3.00;;;;;;;;5073833;28;51097;-61
2022/08/07 05:51:52;;;;;;;;;4.00;3.00;;;;;;;;5073667;28;51070;-61
2022/08/07 05:54:17;;;;;;;;;4.00;4.00;;;;;;;;5073876;28;50889;-62
2022/08/07 05:56:43;;;;;;;;;4.67;4.67;;;;;;;;5073974;28;51231;-61
2022/08/07 05:59:13;;;;;;;;;4.33;3.00;;;;;;;;5073544;27;51299;-62
2022/08/07 06:01:39;;;;;;;;;4.00;4.00;;;;;;;;5074513;27;51160;-61
2022/08/07 06:04:07;;;;;;;;;5.00;5.00;;;;;;;;5073654;28;50888;-62
2022/08/07 06:06:33;;;;;;;;;3.00;3.00;;;;;;;;5075359;28;50863;-61
2022/08/07 06:08:59;;;;;;;;;4.67;4.67;;;;;;;;5074119;28;52365;-61
2022/08/07 06:11:25;;;;;;;;;5.00;5.00;;;;;;;;5074213;28;51175;-62
2022/08/07 06:13:50;;;;;;;;;5.33;5.00;;;;;;;;5075032;28;51023;-63
2022/08/07 06:16:16;;;;;;;;;4.00;4.00;;;;;;;;5076035;28;51123;-61
2022/08/07 06:18:43;;;;;;;;;4.00;3.00;;;;;;;;5074301;27;51049;-61
2022/08/07 06:21:09;;;;;;;;;4.00;4.00;;;;;;;;5072222;28;51167;-62
2022/08/07 06:23:34;;;;;;;;;5.67;4.67;;;;;;;;5073066;27;50987;-61
2022/08/07 06:26:01;;;;;;;;;4.00;4.00;;;;;;;;5073807;28;51026;-61
2022/08/07 06:28:26;;;;;;;;;4.00;4.00;;;;;;;;5073027;27;52161;-61
2022/08/07 06:30:51;;;;;;;;;3.33;3.00;;;;;;;;5073215;27;51110;-61
2022/08/07 06:33:16;;;;;;;;;4.00;4.00;;;;;;;;5073433;27;51147;-62
2022/08/07 06:35:42;;;;;;;;;3.00;2.00;;;;;;;;5073832;27;51203;-61
2022/08/07 06:38:07;;;;;;;;;4.00;4.00;;;;;;;;5072757;28;52536;-61
2022/08/07 06:40:36;;;;;;;;;4.00;4.00;;;;;;;;5073246;28;51067;-61
2022/08/07 06:43:02;;;;;;;;;4.00;4.00;;;;;;;;5071925;28;50973;-61
2022/08/07 06:45:28;;;;;;;;;3.00;3.00;;;;;;;;5073648;27;50920;-61
2022/08/07 06:47:54;;;;;;;;;3.00;2.33;;;;;;;;5072672;27;52027;-62
2022/08/07 06:50:19;;;;;;;;;2.33;2.00;;;;;;;;5073206;27;50913;-62
2022/08/07 06:52:46;;;;;;;;;2.67;2.67;;;;;;;;5072761;28;50981;-62
2022/08/07 06:55:14;;;;;;;;;4.00;3.00;;;;;;;;5073868;27;51153;-62
2022/08/07 06:57:40;;;;;;;;;1.67;1.67;;;;;;;;5072787;27;51107;-62
2022/08/07 07:00:06;;;;;;;;;3.00;3.00;;;;;;;;5072795;28;51114;-62
2022/08/07 07:02:32;;;;;;;;;1.67;1.67;;;;;;;;5066508;28;51072;-61
2022/08/07 07:04:57;;;;;;;;;1.00;1.00;;;;;;;;5072703;28;51226;-61
2022/08/07 07:07:23;;;;;;;;;3.00;2.33;;;;;;;;5071832;28;51282;-61
2022/08/07 07:09:49;;;;;;;;;3.00;3.00;;;;;;;;5072516;28;51040;-61
2022/08/07 07:12:20;;;;;;;;;2.00;2.00;;;;;;;;5072606;28;51258;-61
2022/08/07 07:15:04;;;;;;;;;2.33;2.33;;;;;;;;5072934;28;51165;-61
2022/08/07 07:17:38;;;;;;;;;3.00;3.00;;;;;;;;5071978;27;51123;-61
2022/08/07 07:20:07;;;;;;;;;2.00;2.00;;;;;;;;5072628;28;51074;-60
2022/08/07 07:22:32;;;;;;;;;2.00;1.67;;;;;;;;5071958;28;51043;-61
2022/08/07 07:24:59;;;;;;;;;1.67;1.67;;;;;;;;5072555;28;51209;-61
2022/08/07 07:27:27;;;;;;;;;2.33;2.00;;;;;;;;5072293;28;52376;-62
2022/08/07 07:29:56;;;;;;;;;2.67;2.00;;;;;;;;5071011;28;51024;-63
2022/08/07 07:32:22;;;;;;;;;2.00;2.00;;;;;;;;5072245;27;50955;-61
2022/08/07 07:34:50;;;;;;;;;2.33;2.33;;;;;;;;5072342;28;51246;-63
2022/08/07 07:37:16;;;;;;;;;2.00;2.00;;;;;;;;5071881;28;51356;-61
2022/08/07 07:39:42;;;;;;;;;2.67;2.33;;;;;;;;5072311;28;50909;-61
2022/08/07 07:42:10;;;;;;;;;2.00;2.00;;;;;;;;5072193;28;51060;-61
2022/08/07 07:44:37;;;;;;;;;2.33;2.33;;;;;;;;5072196;27;51084;-61
2022/08/07 07:47:02;;;;;;;;;2.00;2.00;;;;;;;;5072001;28;52175;-61
2022/08/07 07:49:28;;;;;;;;;3.00;3.00;;;;;;;;5072006;28;51046;-61
2022/08/07 07:51:54;;;;;;;;;2.00;2.00;;;;;;;;5074049;27;51333;-62
2022/08/07 07:54:20;;;;;;;;;3.00;2.00;;;;;;;;5075875;28;51305;-62
2022/08/07 07:56:46;;;;;;;;;1.33;1.33;;;;;;;;5074001;28;51833;-62
2022/08/07 07:59:12;;;;;;;;;2.00;1.33;;;;;;;;5075375;28;50936;-61
2022/08/07 08:01:41;;;;;;;;;2.00;2.00;;;;;;;;5075745;27;51161;-61
2022/08/07 08:04:07;;;;;;;;;1.00;1.00;;;;;;;;5075443;27;51117;-61
2022/08/07 08:06:33;;;;;;;;;0.67;0.67;;;;;;;;5074948;28;51186;-61
2022/08/07 08:09:03;;;;;;;;;1.67;1.33;;;;;;;;5075401;28;50985;-61
2022/08/07 08:11:29;;;;;;;;;1.00;1.00;;;;;;;;5075391;28;51134;-61
2022/08/07 08:13:54;;;;;;;;;2.00;2.00;;;;;;;;5074087;27;51377;-61
2022/08/07 08:16:20;;;;;;;;;2.00;2.00;;;;;;;;5075349;27;51300;-61
2022/08/07 08:18:47;;;;;;;;;1.00;1.00;;;;;;;;5075388;28;50946;-61
2022/08/07 08:27:03;;;;;;;;;2.00;1.33;;;;;;;;5075408;28;51128;-61
2022/08/07 08:27:07;;;;;;;;;1.00;1.00;;;;;;;;5024277;27;51983;-60
2022/08/07 08:29:39;;;;;;;;;0.00;0.00;;;;;;;;5075221;27;50999;-61
2022/08/07 08:32:05;;;;;;;;;1.00;1.00;;;;;;;;5074950;28;51119;-61
2022/08/07 08:34:31;;;;;;;;;1.00;1.00;;;;;;;;5073639;28;51414;-61
2022/08/07 08:36:57;;;;;;;;;0.00;0.00;;;;;;;;5074628;27;51288;-61
2022/08/07 08:39:24;;;;;;;;;1.00;0.00;;;;;;;;5072992;28;50976;-60
2022/08/07 08:41:52;;;;;;;;;0.00;0.00;;;;;;;;5075318;28;50908;-61
2022/08/07 08:44:21;;;;;;;;;0.00;0.00;;;;;;;;5075318;27;51226;-61
2022/08/07 08:46:55;;;;;;;;;0.67;0.67;;;;;;;;5073222;27;53367;-60
2022/08/07 08:49:23;;;;;;;;;1.00;1.00;;;;;;;;5076011;28;51059;-61
2022/08/07 08:52:14;;;;;;;;;0.00;0.00;;;;;;;;5075489;28;50892;-61
2022/08/07 08:54:39;;;;;;;;;2.33;1.33;;;;;;;;5069688;28;51920;-60
2022/08/07 08:57:07;;;;;;;;;0.33;0.33;;;;;;;;5074769;28;51862;-60
2022/08/07 08:59:39;;;;;;;;;0.00;0.00;;;;;;;;5074464;28;50922;-61
2022/08/07 09:02:24;;;;;;;;;1.00;1.00;;;;;;;;5072648;28;51250;-61
2022/08/07 09:04:58;;;;;;;;;0.00;0.00;;;;;;;;5074407;27;51219;-62
2022/08/07 09:07:28;;;;;;;;;0.00;0.00;;;;;;;;5068501;28;51493;-61
2022/08/07 09:10:02;;;;;;;;;0.00;0.00;;;;;;;;5074987;27;50900;-60
2022/08/07 09:12:30;;;;;;;;;0.33;0.33;;;;;;;;5075015;28;51257;-61
2022/08/07 09:15:28;;;;;;;;;1.33;1.33;;;;;;;;5074738;27;50913;-61
2022/08/07 09:18:05;;;;;;;;;0.00;0.00;;;;;;;;5049220;28;51293;-61
2022/08/07 09:20:50;;;;;;;;;0.00;0.00;;;;;;;;5074183;28;51124;-62
2022/08/07 09:23:18;;;;;;;;;0.00;0.00;;;;;;;;5074137;28;50831;-61
2022/08/07 09:25:48;;;;;;;;;1.00;1.00;;;;;;;;5074369;28;50897;-61
2022/08/07 09:28:23;;;;;;;;;0.00;0.00;;;;;;;;5074202;28;50929;-61
2022/08/07 09:30:54;;;;;;;;;0.67;0.67;;;;;;;;5074170;28;51101;-60
2022/08/07 09:33:45;;;;;;;;;1.67;1.67;;;;;;;;5073893;28;50967;-61
2022/08/07 09:36:17;;;;;;;;;0.00;0.00;;;;;;;;5072674;28;51151;-61
2022/08/07 09:38:45;;;;;;;;;1.00;1.00;;;;;;;;5072903;28;54343;-60
2022/08/07 09:41:29;;;;;;;;;0.33;0.33;;;;;;;;5073882;28;50982;-61
2022/08/07 09:44:02;;;;;;;;;1.00;1.00;;;;;;;;5072079;28;50980;-61
2022/08/07 09:46:43;;;;;;;;;2.00;1.67;;;;;;;;5073941;28;51081;-61
2022/08/07 09:49:19;;;;;;;;;0.67;0.67;;;;;;;;5073627;27;50899;-61
2022/08/07 09:51:50;;;;;;;;;1.67;1.67;;;;;;;;5073361;28;51261;-61
2022/08/07 09:54:18;;;;;;;;;1.00;1.00;;;;;;;;5073440;27;51108;-60
2022/08/07 09:57:01;;;;;;;;;0.67;0.67;;;;;;;;5073506;28;50822;-59
2022/08/07 09:59:32;;;;;;;;;1.00;1.00;;;;;;;;5072929;27;51670;-60
2022/08/07 10:02:06;;;;;;;;;2.00;2.00;;;;;;;;5073234;28;51085;-61
2022/08/07 10:04:42;;;;;;;;;1.00;1.00;;;;;;;;5072823;27;51257;-61
2022/08/07 10:07:26;;;;;;;;;1.00;1.00;;;;;;;;5073324;28;51419;-60
2022/08/07 10:09:58;;;;;;;;;2.00;2.00;;;;;;;;5060232;28;52142;-61
2022/08/07 10:12:42;;;;;;;;;2.33;2.33;;;;;;;;5073025;27;50935;-61
2022/08/07 10:15:26;;;;;;;;;3.00;2.33;;;;;;;;5073037;27;51311;-61
2022/08/07 10:18:03;;;;;;;;;1.67;1.00;;;;;;;;5059821;28;51305;-61
2022/08/07 10:20:47;;;;;;;;;1.67;1.67;;;;;;;;5072228;28;51142;-61
2022/08/07 10:23:24;;;;;;;;;2.67;1.00;;;;;;;;5072711;27;50941;-61
2022/08/07 10:25:52;;;;;;;;;2.00;2.00;;;;;;;;5072427;28;51223;-60
2022/08/07 10:28:17;;;;;;;;;2.00;2.00;;;;;;;;5073370;28;51272;-60
2022/08/07 10:31:01;;;;;;;;;4.00;4.00;;;;;;;;5072665;28;51153;-60
2022/08/07 10:33:27;;;;;;;;;1.00;1.00;;;;;;;;5073066;27;51040;-62
2022/08/07 10:36:07;;;;;;;;;3.00;3.00;;;;;;;;5073158;28;50991;-61
2022/08/07 10:38:42;;;;;;;;;3.00;3.00;;;;;;;;5070814;28;51261;-61
2022/08/07 10:41:10;;;;;;;;;2.00;2.00;;;;;;;;5072358;28;51856;-61
2022/08/07 10:43:43;;;;;;;;;1.33;1.33;;;;;;;;5070944;28;51249;-61
2022/08/07 10:46:13;;;;;;;;;2.00;2.00;;;;;;;;5072346;28;50849;-61
2022/08/07 10:48:47;;;;;;;;;3.33;3.33;;;;;;;;5072917;27;50892;-61
2022/08/07 10:51:34;;;;;;;;;2.00;2.00;;;;;;;;5072020;28;51100;-62
2022/08/07 10:54:05;;;;;;;;;1.67;1.67;;;;;;;;5072405;28;50993;-61
2022/08/07 10:56:39;;;;;;;;;2.67;2.67;;;;;;;;5072447;28;51135;-60
2022/08/07 10:59:05;;;;;;;;;1.00;1.00;;;;;;;;5072671;28;51012;-60
2022/08/07 11:01:39;;;;;;;;;2.33;2.33;;;;;;;;5070535;28;52910;-60
2022/08/07 11:04:16;;;;;;;;;3.00;2.67;;;;;;;;5070540;28;51136;-61
2022/08/07 11:06:56;;;;;;;;;2.00;2.00;;;;;;;;5070806;28;51027;-60
2022/08/07 11:09:25;;;;;;;;;2.00;2.00;;;;;;;;5072210;28;50960;-61
2022/08/07 11:12:10;;;;;;;;;1.33;1.33;;;;;;;;5072011;27;51176;-61
2022/08/07 11:14:40;;;;;;;;;1.00;1.00;;;;;;;;5072136;28;50962;-60
2022/08/07 11:17:26;;;;;;;;;2.00;2.00;;;;;;;;5071761;28;50936;-61
2022/08/07 11:20:00;;;;;;;;;2.67;2.67;;;;;;;;5071896;28;50827;-61
2022/08/07 11:22:40;;;;;;;;;3.67;3.00;;;;;;;;5071119;28;51745;-61
2022/08/07 11:25:15;;;;;;;;;4.67;4.00;;;;;;;;5071579;28;51111;-59
2022/08/07 11:27:59;;;;;;;;;2.67;2.67;;;;;;;;5071942;28;51156;-61
2022/08/07 11:30:27;;;;;;;;;2.67;2.67;;;;;;;;5071715;27;51349;-61
2022/08/07 11:32:59;;;;;;;;;4.00;3.67;;;;;;;;5071597;27;51007;-60
2022/08/07 11:35:29;;;;;;;;;2.00;2.00;;;;;;;;5071890;28;50936;-60
2022/08/07 11:38:03;;;;;;;;;3.00;3.00;;;;;;;;5071911;28;51000;-61
2022/08/07 11:40:47;;;;;;;;;2.67;2.67;;;;;;;;5071927;28;51274;-61
2022/08/07 11:43:25;;;;;;;;;3.00;3.00;;;;;;;;5071437;27;51078;-61
2022/08/07 11:45:53;;;;;;;;;4.00;4.00;;;;;;;;5070671;28;50929;-60
2022/08/07 11:48:36;;;;;;;;;3.67;3.67;;;;;;;;5072586;28;51066;-61
2022/08/07 11:51:22;;;;;;;;;4.33;4.33;;;;;;;;5072336;27;50895;-62
2022/08/07 11:53:47;;;;;;;;;3.00;2.00;;;;;;;;5068232;28;51017;-61
2022/08/07 11:56:13;;;;;;;;;3.00;3.00;;;;;;;;5070672;28;50982;-60
2022/08/07 11:58:56;;;;;;;;;5.00;5.00;;;;;;;;5072312;28;51076;-60
2022/08/07 12:01:34;;;;;;;;;4.00;4.00;;;;;;;;5072719;27;51366;-60
2022/08/07 12:04:16;;;;;;;;;5.00;5.00;;;;;;;;5072706;28;52103;-60
2022/08/07 12:06:50;;;;;;;;;4.67;4.67;;;;;;;;5072033;28;50996;-61
2022/08/07 12:09:24;;;;;;;;;3.00;3.00;;;;;;;;5072426;28;51106;-62
2022/08/07 12:12:25;;;;;;;;;2.00;2.00;;;;;;;;5072377;27;51073;-62
2022/08/07 12:15:02;;;;;;;;;3.33;3.33;;;;;;;;5049148;28;51323;-61
2022/08/07 12:17:39;;;;;;;;;2.33;2.33;;;;;;;;5054873;28;50982;-61
2022/08/07 12:20:08;;;;;;;;;4.33;3.33;;;;;;;;5071363;28;51069;-59
2022/08/07 12:22:52;;;;;;;;;2.33;2.33;;;;;;;;5071124;28;50984;-61
2022/08/07 12:25:56;;;;;;;;;3.33;3.33;;;;;;;;5071667;28;51897;-61
2022/08/07 12:28:21;;;;;;;;;2.33;2.33;;;;;;;;5048846;28;51012;-61
2022/08/07 12:30:49;;;;;;;;;4.67;3.33;;;;;;;;5058260;28;51092;-61
2022/08/07 12:33:17;;;;;;;;;4.67;4.33;;;;;;;;5071718;27;51365;-62
2022/08/07 12:35:47;;;;;;;;;3.33;3.33;;;;;;;;5071730;27;51744;-61
2022/08/07 12:38:13;;;;;;;;;5.00;4.00;;;;;;;;5073725;28;50973;-61
2022/08/07 12:40:41;;;;;;;;;4.00;4.00;;;;;;;;5073767;28;50897;-61
2022/08/07 12:43:08;;;;;;;;;5.00;5.00;;;;;;;;5073614;28;52009;-62
2022/08/07 12:45:37;;;;;;;;;4.00;3.33;;;;;;;;5074840;28;51779;-60
2022/08/07 12:48:21;;;;;;;;;3.00;3.00;;;;;;;;5074880;28;50902;-60
2022/08/07 12:50:53;;;;;;;;;3.33;3.33;;;;;;;;5074766;27;51220;-61
2022/08/07 12:53:24;;;;;;;;;3.00;3.00;;;;;;;;5074255;27;51199;-61
2022/08/07 12:55:55;;;;;;;;;3.00;3.00;;;;;;;;5074057;28;52145;-61
2022/08/07 12:58:21;;;;;;;;;3.00;2.67;;;;;;;;5074570;28;50922;-61
2022/08/07 13:00:47;;;;;;;;;5.00;5.00;;;;;;;;5074036;28;51160;-61
2022/08/07 13:03:18;;;;;;;;;5.00;5.00;;;;;;;;5074726;28;51025;-62
2022/08/07 13:05:57;;;;;;;;;4.33;4.33;;;;;;;;5073620;27;51949;-61
2022/08/07 13:08:30;;;;;;;;;4.00;3.33;;;;;;;;5073916;28;50962;-61
2022/08/07 13:10:58;;;;;;;;;4.00;3.00;;;;;;;;5074101;28;50915;-62
2022/08/07 13:13:29;;;;;;;;;3.67;3.33;;;;;;;;5074401;28;50902;-61
2022/08/07 13:15:59;;;;;;;;;3.00;3.00;;;;;;;;5074022;28;52336;-62
2022/08/07 13:18:45;;;;;;;;;2.33;2.33;;;;;;;;5074135;28;50930;-61
2022/08/07 13:21:14;;;;;;;;;4.00;4.00;;;;;;;;5072278;28;51106;-61
2022/08/07 13:23:39;;;;;;;;;3.00;3.00;;;;;;;;5074158;28;51078;-61
2022/08/07 13:26:10;;;;;;;;;3.00;3.00;;;;;;;;5073424;28;51251;-62
2022/08/07 13:28:42;;;;;;;;;2.00;2.00;;;;;;;;5073637;28;51099;-61
2022/08/07 13:31:28;;;;;;;;;3.67;3.67;;;;;;;;5073749;28;51064;-61
2022/08/07 13:33:59;;;;;;;;;4.00;4.00;;;;;;;;5073409;28;50967;-62
2022/08/07 13:36:31;;;;;;;;;4.00;4.00;;;;;;;;5073193;27;52339;-61
2022/08/07 13:39:15;;;;;;;;;2.00;1.67;;;;;;;;5071743;28;51286;-61
2022/08/07 13:41:50;;;;;;;;;4.00;4.00;;;;;;;;5073624;28;51248;-61
2022/08/07 13:44:18;;;;;;;;;1.00;1.00;;;;;;;;5073873;28;51049;-61
2022/08/07 13:46:45;;;;;;;;;3.33;3.33;;;;;;;;5073460;28;51995;-61
2022/08/07 13:49:12;;;;;;;;;2.67;2.67;;;;;;;;5073024;28;50952;-62
2022/08/07 13:51:38;;;;;;;;;3.00;3.00;;;;;;;;5073391;28;51217;-61
2022/08/07 13:54:06;;;;;;;;;3.00;3.00;;;;;;;;5073636;28;51261;-64
2022/08/07 13:56:33;;;;;;;;;2.67;2.67;;;;;;;;5073122;28;51871;-61
2022/08/07 13:59:00;;;;;;;;;1.33;1.33;;;;;;;;5073309;27;51109;-60
2022/08/07 14:01:28;;;;;;;;;2.00;2.00;;;;;;;;5073417;27;50906;-61
2022/08/07 14:03:55;;;;;;;;;3.00;2.33;;;;;;;;5073224;27;51337;-60
2022/08/07 14:06:21;;;;;;;;;4.00;4.00;;;;;;;;5072443;27;51775;-61
2022/08/07 14:08:47;;;;;;;;;5.00;5.00;;;;;;;;5072993;27;51041;-61
2022/08/07 14:11:14;;;;;;;;;3.00;3.00;;;;;;;;5073099;28;50916;-63
2022/08/07 14:13:43;;;;;;;;;3.00;3.00;;;;;;;;5073555;27;50862;-62
2022/08/07 14:16:13;;;;;;;;;3.00;3.00;;;;;;;;5072680;28;51647;-61
2022/08/07 14:18:43;;;;;;;;;3.00;3.00;;;;;;;;5073072;28;51072;-62
2022/08/07 14:21:08;;;;;;;;;2.00;2.00;;;;;;;;5071814;27;51100;-62
2022/08/07 14:23:34;;;;;;;;;4.00;3.00;;;;;;;;5073336;28;50967;-62
2022/08/07 14:26:10;;;;;;;;;5.33;5.33;;;;;;;;5071624;28;54147;-62
2022/08/07 14:28:39;;;;;;;;;3.33;3.33;;;;;;;;5073284;28;51077;-62
2022/08/07 14:31:04;;;;;;;;;1.67;1.67;;;;;;;;5073094;28;50961;-62
2022/08/07 14:33:33;;;;;;;;;4.67;3.67;;;;;;;;5073242;27;50997;-64
2022/08/07 14:36:03;;;;;;;;;3.00;3.00;;;;;;;;5073082;28;50944;-63
2022/08/07 14:38:29;;;;;;;;;2.00;2.00;;;;;;;;5072662;28;50966;-62
2022/08/07 14:41:04;;;;;;;;;3.00;2.67;;;;;;;;5073048;27;51098;-62
2022/08/07 14:43:31;;;;;;;;;2.33;2.33;;;;;;;;5072530;27;51217;-61
2022/08/07 14:45:58;;;;;;;;;3.00;3.00;;;;;;;;5072502;27;51303;-62
2022/08/07 14:48:27;;;;;;;;;4.00;3.67;;;;;;;;5072493;27;50974;-62
2022/08/07 14:50:55;;;;;;;;;3.00;3.00;;;;;;;;5071580;28;51056;-62
2022/08/07 14:53:21;;;;;;;;;5.67;5.00;;;;;;;;5072330;27;50838;-63
2022/08/07 14:55:47;;;;;;;;;2.67;2.67;;;;;;;;5072464;28;52144;-61
2022/08/07 14:58:14;;;;;;;;;2.33;2.33;;;;;;;;5072484;28;50877;-60
2022/08/07 15:00:42;;;;;;;;;3.00;2.67;;;;;;;;5071192;28;51031;-62